Terminal Aerodrome Forecast
Issued by NWS

Home | Current Version | Previous Version | Graphics & Text | Print | Product List | Glossary On
Versions: 1 2 3 4 5 6 7 8 9 10 11 12 13 14 15
000
FTUS43 KOAX 210000 AAA
TAFCDR
TAF AMD
KCDR 210001Z 2100/2124 02014KT P6SM SCT300
     FM210500 34006KT P6SM SKC
     FM211800 VRB05KT P6SM SKC=

USA.gov is the U.S. government's official web portal to all federal, state and local government web resources and services.